Südanflug-Wetter

Südanflüge sind sowohl am Euroairport Basel-Mulhouse-Freiburg als auch am Flughafen Unique Zürich ein Thema für die Anwohner. In Basel hängen Südanflüge von den Windverhältnissen ab. Für den Euroairport Basel-Mulhouse-Freiburg bereitet MeteoNews deshalb aktuelle Winddaten auf, die direkt auf der Homepage des Flughafens eingebunden werden. Angaben zum Flughafen Zürich finden Sie hier.

In Zürich sind Südanflüge auf die Piste 34 möglich, wenn die horizontale Sichtweite mindestens 750 m beträgt und die Wolkenuntergrenze im Anflugsektor nicht tiefer als 300 Fuss (knapp 100 m) liegt (diese Werte gelten seit dem 1. November 2004).

Prognose für Südanflüge

Am Montag sind Südanflüge möglich.
(Prognose ohne Gewähr. Die Vorhersage wird mehrmals täglich aktualisiert. Verantwortlicher Meteorologe: Sharon Satz, 23.04.2017 10:27)

Analyse der letzten METAR-Messungen

Unser Tool wertet die letzten 20 offiziellen Wettermeldungen (METAR) des Flughafens Zürich aus und entscheidet aufgrund der beiden Werte für Sichtweite und Ceiling (Hauptwolkenuntergrenze), ob Südanflüge nach obiger Definition möglich wären. Allerdings repräsentiert der Wert für die Wolkenuntergrenze in der METAR-Meldung nicht die Bewölkung im Anflugsektor sondern generell um den Flughafen. Da über die Bewölkung im Anflugsektor kurzfristig aufgrund von Beobachtungen des Towers und von Piloten entschieden wird, kann die Angabe unseres Tools in gewissen Fällen von den realen Entscheiden der Flugsicherung abweichen.

Südanflüge Datum Uhrzeit Sichtweite Ceiling Vollständige METAR-Meldung
möglich 2017-04-23 15:20:00 > 10 km LSZH 231320Z VRB02KT 9999 SCT050 13/00 Q1022 NOSIG
möglich 2017-04-23 14:50:00 > 10 km LSZH 231250Z VRB04KT 9999 SCT050 12/00 Q1022 NOSIG
möglich 2017-04-23 14:20:00 > 10 km LSZH 231220Z VRB04KT 9999 SCT050 12/00 Q1023 NOSIG
möglich 2017-04-23 13:50:00 > 10 km LSZH 231150Z VRB04KT 9999 FEW045 SCT050 12/01 Q1023 NOSIG
möglich 2017-04-23 13:20:00 > 10 km LSZH 231120Z VRB05KT 9999 FEW040 SCT045 11/00 Q1023 NOSIG
möglich 2017-04-23 12:50:00 > 10 km 1370 m LSZH 231050Z VRB03KT 9999 FEW040 BKN045 12/01 Q1023 NOSIG
möglich 2017-04-23 12:20:00 > 10 km 1370 m LSZH 231020Z VRB02KT 9999 FEW040 BKN045 10/01 Q1023 NOSIG
möglich 2017-04-23 11:50:00 > 10 km 1370 m LSZH 230950Z VRB03KT 9999 FEW038 BKN045 10/00 Q1024 NOSIG
möglich 2017-04-23 11:20:00 > 10 km 1310 m LSZH 230920Z VRB03KT 9999 SCT035 BKN043 09/00 Q1024 NOSIG
möglich 2017-04-23 10:50:00 > 10 km LSZH 230850Z VRB02KT 9999 SCT035 SCT045 09/00 Q1024 NOSIG
möglich 2017-04-23 10:20:00 > 10 km LSZH 230820Z 02004KT 340V060 9999 FEW036 SCT045 08/M00 Q1024 NOSIG
möglich 2017-04-23 09:50:00 > 10 km LSZH 230750Z 02004KT 320V080 9999 FEW033 SCT045 08/00 Q1024 NOSIG
möglich 2017-04-23 09:20:00 > 10 km LSZH 230720Z 03005KT 350V060 9999 FEW033 SCT045 08/00 Q1024 NOSIG
möglich 2017-04-23 08:50:00 > 10 km 1370 m LSZH 230650Z 03005KT 340V050 9999 FEW028 BKN045 08/01 Q1024 NOSIG
möglich 2017-04-23 08:20:00 > 10 km 1370 m LSZH 230620Z 35005KT 9999 FEW035 BKN045 06/01 Q1024 NOSIG
möglich 2017-04-23 07:50:00 > 10 km 1370 m LSZH 230550Z 36004KT 340V140 9999 FEW035 BKN045 06/02 Q1024 NOSIG
möglich 2017-04-23 07:20:00 > 10 km 1370 m LSZH 230520Z 36003KT 9999 BKN045 05/02 Q1023 NOSIG
möglich 2017-04-23 06:50:00 > 10 km 1370 m LSZH 230450Z 01003KT 9999 BKN045 05/01 Q1023 NOSIG
möglich 2017-04-23 06:20:00 > 10 km 1310 m LSZH 230420Z 35002KT 9999 BKN043 06/01 Q1023 NOSIG
möglich 2017-04-23 05:50:00 > 10 km 1430 m LSZH 230350Z VRB02KT 9999 FEW040 BKN047 06/01 Q1023 NOSIG